createdAt,value
2022-11-30T00:00:45.101Z,101429.34
2022-11-30T00:02:57.502Z,101421.75
2022-11-30T00:04:59.421Z,101429.63
2022-11-30T00:07:01.225Z,101425.66
2022-11-30T00:09:03.570Z,101427.28
2022-11-30T00:11:14.153Z,101426.59
2022-11-30T00:13:15.937Z,101428.09
2022-11-30T00:15:18.274Z,101421.91
2022-11-30T00:17:20.355Z,101414.94
2022-11-30T00:19:22.246Z,101426.69
2022-11-30T00:21:24.406Z,101427.78
2022-11-30T00:23:26.310Z,101433.41
2022-11-30T00:25:28.111Z,101425.31
2022-11-30T00:27:31.934Z,101437.72
2022-11-30T00:29:34.237Z,101429.00
2022-11-30T00:31:36.011Z,101423.19
2022-11-30T00:33:38.973Z,101436.69
2022-11-30T00:35:40.819Z,101433.63
2022-11-30T00:37:42.574Z,101431.06
2022-11-30T00:39:44.793Z,101425.72
2022-11-30T00:41:46.554Z,101419.81
2022-11-30T00:43:49.030Z,101431.38
2022-11-30T00:45:51.444Z,101436.84
2022-11-30T00:47:53.274Z,101423.81
2022-11-30T00:49:55.110Z,101434.47
2022-11-30T00:51:57.350Z,101439.66
2022-11-30T00:53:59.107Z,101434.53
2022-11-30T00:56:01.255Z,101427.34
2022-11-30T00:58:03.623Z,101435.34
2022-11-30T01:00:06.210Z,101443.06
2022-11-30T01:02:08.722Z,101433.72
2022-11-30T01:04:11.011Z,101445.72
2022-11-30T01:06:12.810Z,101446.25
2022-11-30T01:08:14.616Z,101437.91
2022-11-30T01:10:17.472Z,101445.09
2022-11-30T01:12:19.262Z,101439.47
2022-11-30T01:14:21.040Z,101452.75
2022-11-30T01:16:28.049Z,101446.03
2022-11-30T01:18:29.824Z,101446.78
2022-11-30T01:20:31.809Z,101444.25
2022-11-30T01:22:34.788Z,101439.78
2022-11-30T01:24:36.724Z,101440.69
2022-11-30T01:26:38.541Z,101442.50
2022-11-30T01:28:41.702Z,101441.03
2022-11-30T01:30:43.479Z,101450.38
2022-11-30T01:32:45.374Z,101448.44
2022-11-30T01:34:47.905Z,101449.34
2022-11-30T01:36:49.863Z,101450.25
2022-11-30T01:38:57.206Z,101451.94
2022-11-30T01:40:59.526Z,101450.94
2022-11-30T01:43:01.289Z,101459.88
2022-11-30T01:45:05.767Z,101455.03
2022-11-30T01:47:11.738Z,101450.72
2022-11-30T01:49:19.138Z,101457.69
2022-11-30T01:51:21.247Z,101455.31
2022-11-30T01:53:24.642Z,101462.63
2022-11-30T01:55:39.999Z,101459.25
2022-11-30T01:57:50.632Z,101452.06
2022-11-30T01:59:54.753Z,101458.06
2022-11-30T02:01:56.832Z,101465.34
2022-11-30T02:04:11.746Z,101464.41
2022-11-30T02:06:15.187Z,101463.72
2022-11-30T02:08:17.588Z,101457.63
2022-11-30T02:10:26.834Z,101456.63
2022-11-30T02:12:43.215Z,101437.38
2022-11-30T02:14:50.314Z,101461.16
2022-11-30T02:17:19.910Z,101455.16
2022-11-30T02:20:10.191Z,101464.13
2022-11-30T02:22:29.451Z,101446.13
2022-11-30T02:24:41.242Z,101455.53
2022-11-30T02:27:28.171Z,101451.28
2022-11-30T02:29:36.134Z,101452.94
2022-11-30T02:31:54.012Z,101455.25
2022-11-30T02:33:58.083Z,101446.66
2022-11-30T02:36:03.311Z,101455.91
2022-11-30T02:38:05.297Z,101474.66
2022-11-30T02:40:10.466Z,101456.72
2022-11-30T02:42:14.285Z,101469.78
2022-11-30T02:44:17.199Z,101469.66
2022-11-30T02:46:35.205Z,101472.75
2022-11-30T02:48:48.698Z,101469.50
2022-11-30T02:50:59.216Z,101466.97
2022-11-30T02:53:01.459Z,101471.97
2022-11-30T02:55:07.746Z,101474.50
2022-11-30T02:57:09.563Z,101469.38
2022-11-30T02:59:11.627Z,101474.25
2022-11-30T03:01:14.564Z,101474.09
2022-11-30T03:03:16.419Z,101475.50
2022-11-30T03:05:18.190Z,101470.97
2022-11-30T03:07:20.487Z,101482.59
2022-11-30T03:09:22.304Z,101472.59
2022-11-30T03:11:24.351Z,101458.88
2022-11-30T03:13:26.469Z,101468.56
2022-11-30T03:15:28.393Z,101475.19
2022-11-30T03:17:30.233Z,101475.91
2022-11-30T03:19:32.993Z,101475.56
2022-11-30T03:21:34.795Z,101472.09
2022-11-30T03:23:37.438Z,101474.31
2022-11-30T03:25:39.521Z,101485.91
2022-11-30T03:27:41.278Z,101481.84
2022-11-30T03:29:43.165Z,101472.66
2022-11-30T03:31:45.309Z,101479.53
2022-11-30T03:33:47.382Z,101490.63
2022-11-30T03:35:49.422Z,101483.09
2022-11-30T03:37:51.540Z,101495.09
2022-11-30T03:39:57.986Z,101485.81
2022-11-30T03:42:00.206Z,101485.34
2022-11-30T03:44:02.306Z,101499.06
2022-11-30T03:46:04.662Z,101502.97
2022-11-30T03:48:06.820Z,101493.47
2022-11-30T03:50:09.406Z,101501.06
2022-11-30T03:52:11.242Z,101497.91
2022-11-30T03:54:13.097Z,101501.22
2022-11-30T03:56:15.731Z,101485.84
2022-11-30T03:58:17.540Z,101489.09
2022-11-30T04:00:20.212Z,101485.22
2022-11-30T04:02:22.516Z,101496.38
2022-11-30T04:04:24.517Z,101498.94
2022-11-30T04:06:26.431Z,101498.94
2022-11-30T04:08:29.093Z,101511.94
2022-11-30T04:10:30.921Z,101504.63
2022-11-30T04:12:32.941Z,101505.47
2022-11-30T04:14:35.077Z,101511.88
2022-11-30T04:16:36.875Z,101500.31
2022-11-30T04:18:39.272Z,101509.25
2022-11-30T04:20:41.876Z,101504.63
2022-11-30T04:22:43.659Z,101509.25
2022-11-30T04:24:46.000Z,101511.63
2022-11-30T04:26:48.248Z,101508.19
2022-11-30T04:28:50.039Z,101509.84
2022-11-30T04:30:53.584Z,101490.56
2022-11-30T04:32:55.820Z,101493.25
2022-11-30T04:34:57.599Z,101501.69
2022-11-30T04:37:00.544Z,101514.31
2022-11-30T04:39:02.931Z,101511.66
2022-11-30T04:41:08.938Z,101515.50
2022-11-30T04:43:12.491Z,101518.06
2022-11-30T04:45:14.707Z,101507.16
2022-11-30T04:47:16.482Z,101511.06
2022-11-30T04:49:18.302Z,101510.69
2022-11-30T04:51:20.494Z,101511.41
2022-11-30T04:53:22.318Z,101514.13
2022-11-30T04:55:24.419Z,101513.72
2022-11-30T04:57:26.870Z,101515.53
2022-11-30T04:59:28.619Z,101518.47
2022-11-30T05:01:30.500Z,101523.31
2022-11-30T05:03:32.950Z,101520.41
2022-11-30T05:05:34.806Z,101521.75
2022-11-30T05:07:36.896Z,101528.44
2022-11-30T05:09:39.095Z,101517.69
2022-11-30T05:11:40.874Z,101527.34
2022-11-30T05:13:42.657Z,101518.88
2022-11-30T05:15:46.366Z,101515.03
2022-11-30T05:17:48.530Z,101507.31
2022-11-30T05:19:50.303Z,101531.56
2022-11-30T05:21:52.441Z,101527.59
2022-11-30T05:23:54.182Z,101521.47
2022-11-30T05:25:56.349Z,101520.06
2022-11-30T05:27:58.253Z,101529.66
2022-11-30T05:30:00.075Z,101535.53
2022-11-30T05:32:02.327Z,101537.78
2022-11-30T05:34:04.144Z,101526.28
2022-11-30T05:36:10.640Z,101540.41
2022-11-30T05:38:13.222Z,101536.69
2022-11-30T05:40:15.186Z,101546.78
2022-11-30T05:42:16.966Z,101542.56
2022-11-30T05:44:19.069Z,101544.72
2022-11-30T05:46:20.912Z,101547.31
2022-11-30T05:48:22.710Z,101548.13
2022-11-30T05:50:25.018Z,101547.03
2022-11-30T05:52:26.847Z,101549.69
2022-11-30T05:54:28.739Z,101550.03
2022-11-30T05:56:31.460Z,101548.00
2022-11-30T05:58:33.727Z,101552.81
2022-11-30T06:00:35.550Z,101557.28
2022-11-30T06:02:37.789Z,101551.69
2022-11-30T06:04:39.895Z,101537.13
2022-11-30T06:06:41.694Z,101561.91
2022-11-30T06:08:44.621Z,101539.84
2022-11-30T06:10:46.696Z,101562.69
2022-11-30T06:12:48.931Z,101528.81
2022-11-30T06:14:51.226Z,101558.56
2022-11-30T06:16:53.081Z,101558.44
2022-11-30T06:18:54.890Z,101554.31
2022-11-30T06:21:01.813Z,101547.63
2022-11-30T06:23:03.653Z,101557.28
2022-11-30T06:25:05.750Z,101551.53
2022-11-30T06:27:08.071Z,101560.19
2022-11-30T06:29:10.392Z,101559.44
2022-11-30T06:31:12.251Z,101555.78
2022-11-30T06:33:14.669Z,101540.56
2022-11-30T06:35:17.147Z,101567.13
2022-11-30T06:37:18.994Z,101555.97
2022-11-30T06:39:43.064Z,101566.38
2022-11-30T06:41:43.063Z,101574.50
2022-11-30T06:43:45.227Z,101566.75
2022-11-30T06:45:47.386Z,101581.44
2022-11-30T06:47:49.348Z,101574.94
2022-11-30T06:49:51.713Z,101582.09
2022-11-30T06:51:53.471Z,101577.84
2022-11-30T06:53:55.388Z,101572.72
2022-11-30T06:55:57.512Z,101560.44
2022-11-30T06:58:07.157Z,101579.06
2022-11-30T07:00:09.815Z,101584.00
2022-11-30T07:02:17.719Z,101580.38
2022-11-30T07:04:19.936Z,101587.25
2022-11-30T07:06:21.808Z,101581.91
2022-11-30T07:08:24.134Z,101583.25
2022-11-30T07:10:25.964Z,101594.28
2022-11-30T07:12:28.072Z,101578.94
2022-11-30T07:14:31.035Z,101587.38
2022-11-30T07:16:33.084Z,101583.19
2022-11-30T07:18:35.359Z,101595.59
2022-11-30T07:20:38.314Z,101589.41
2022-11-30T07:22:40.179Z,101580.47
2022-11-30T07:25:00.325Z,101597.19
2022-11-30T07:27:03.946Z,101586.81
2022-11-30T07:29:05.740Z,101604.38
2022-11-30T07:31:36.995Z,101593.75
2022-11-30T07:33:39.653Z,101599.97
2022-11-30T07:35:41.504Z,101594.28
2022-11-30T07:37:43.295Z,101600.78
2022-11-30T07:39:45.585Z,101590.63
2022-11-30T07:41:47.399Z,101597.88
2022-11-30T07:43:49.390Z,101607.06
2022-11-30T07:45:55.624Z,101604.28
2022-11-30T07:47:58.979Z,101595.91
2022-11-30T07:50:01.442Z,101602.47
2022-11-30T07:52:04.817Z,101604.94
2022-11-30T07:54:06.960Z,101598.94
2022-11-30T07:56:18.571Z,101590.97
2022-11-30T07:58:20.347Z,101605.44
2022-11-30T08:00:24.835Z,101596.50
2022-11-30T08:02:27.236Z,101595.63
2022-11-30T08:04:29.254Z,101580.19
2022-11-30T08:06:31.992Z,101603.91
2022-11-30T08:08:39.205Z,101592.72
2022-11-30T08:10:41.194Z,101599.44
2022-11-30T08:12:43.537Z,101597.81
2022-11-30T08:15:18.210Z,101592.34
2022-11-30T08:17:09.307Z,101604.94
2022-11-30T08:19:11.562Z,101602.69
2022-11-30T08:21:15.601Z,101604.66
2022-11-30T08:23:18.445Z,101604.34
2022-11-30T08:25:20.926Z,101601.44
2022-11-30T08:27:22.698Z,101602.00
2022-11-30T08:29:24.479Z,101611.84
2022-11-30T08:31:29.520Z,101605.31
2022-11-30T08:33:32.594Z,101611.97
2022-11-30T08:35:34.307Z,101610.38
2022-11-30T08:37:40.012Z,101607.47
2022-11-30T08:39:41.792Z,101603.59
2022-11-30T08:41:43.968Z,101609.53
2022-11-30T08:43:46.256Z,101605.31
2022-11-30T08:45:51.437Z,101600.19
2022-11-30T08:47:56.915Z,101592.38
2022-11-30T08:49:58.742Z,101608.69
2022-11-30T08:52:17.626Z,101611.88
2022-11-30T08:54:20.600Z,101609.50
2022-11-30T08:56:25.071Z,101604.31
2022-11-30T08:58:29.830Z,101608.97
2022-11-30T09:00:31.958Z,101613.38
2022-11-30T09:02:34.028Z,101612.59
2022-11-30T09:04:35.867Z,101604.41
2022-11-30T09:06:38.211Z,101616.03
2022-11-30T09:08:41.395Z,101609.03
2022-11-30T09:10:43.235Z,101612.34
2022-11-30T09:12:45.398Z,101620.91
2022-11-30T09:14:54.045Z,101616.88
2022-11-30T09:16:59.725Z,101619.28
2022-11-30T09:19:02.005Z,101624.22
2022-11-30T09:21:09.536Z,101605.72
2022-11-30T09:23:11.693Z,101612.03
2022-11-30T09:25:13.467Z,101614.19
2022-11-30T09:27:15.568Z,101605.44
2022-11-30T09:29:17.401Z,101591.53
2022-11-30T09:31:24.155Z,101618.09
2022-11-30T09:33:26.299Z,101623.03
2022-11-30T09:35:28.098Z,101610.66
2022-11-30T09:37:30.129Z,101607.50
2022-11-30T09:39:32.817Z,101609.50
2022-11-30T09:41:53.971Z,101598.13
2022-11-30T09:44:17.908Z,101619.31
2022-11-30T09:46:25.641Z,101611.88
2022-11-30T09:48:41.784Z,101597.66
2022-11-30T09:50:45.630Z,101616.53
2022-11-30T09:53:01.277Z,101613.41
2022-11-30T09:55:09.460Z,101616.13
2022-11-30T09:57:33.911Z,101620.50
2022-11-30T09:59:38.371Z,101607.34
2022-11-30T10:01:44.995Z,101615.94
2022-11-30T10:03:47.882Z,101614.72
2022-11-30T10:05:58.541Z,101621.09
2022-11-30T10:08:33.121Z,101617.13
2022-11-30T10:10:40.934Z,101622.59
2022-11-30T10:12:53.775Z,101606.53
2022-11-30T10:15:20.092Z,101614.88
2022-11-30T10:17:34.410Z,101617.34
2022-11-30T10:19:54.919Z,101617.53
2022-11-30T10:22:38.620Z,101611.84
2022-11-30T10:25:11.481Z,101609.56
2022-11-30T10:27:25.947Z,101595.09
2022-11-30T10:29:40.592Z,101604.22
2022-11-30T10:31:44.820Z,101594.03
2022-11-30T10:33:52.370Z,101594.09
2022-11-30T10:35:58.799Z,101595.59
2022-11-30T10:38:12.370Z,101592.03
2022-11-30T10:40:18.138Z,101614.06
2022-11-30T10:42:22.790Z,101601.78
2022-11-30T10:44:34.049Z,101618.53
2022-11-30T10:46:43.969Z,101616.03
2022-11-30T10:48:59.728Z,101615.03
2022-11-30T10:51:03.681Z,101613.72
2022-11-30T10:53:06.439Z,101600.72
2022-11-30T10:55:19.505Z,101594.13
2022-11-30T10:57:24.727Z,101600.50
2022-11-30T10:59:49.063Z,101599.16
2022-11-30T11:01:53.676Z,101602.38
2022-11-30T11:04:09.437Z,101598.06
2022-11-30T11:06:16.189Z,101594.38
2022-11-30T11:08:24.385Z,101608.41
2022-11-30T11:10:47.454Z,101597.34
2022-11-30T11:12:54.355Z,101599.31
2022-11-30T11:15:18.283Z,101601.31
2022-11-30T11:17:20.169Z,101604.13
2022-11-30T11:19:43.893Z,101600.66
2022-11-30T11:21:49.727Z,101596.16
2022-11-30T11:23:54.557Z,101598.59
2022-11-30T11:25:57.676Z,101590.13
2022-11-30T11:28:09.044Z,101590.31
2022-11-30T11:30:26.404Z,101600.63
2022-11-30T11:32:30.397Z,101590.88
2022-11-30T11:34:34.809Z,101600.53
2022-11-30T11:36:37.041Z,101590.13
2022-11-30T11:38:41.272Z,101591.22
2022-11-30T11:40:52.363Z,101595.88
2022-11-30T11:42:58.287Z,101601.31
2022-11-30T11:45:03.908Z,101590.47
2022-11-30T11:47:07.739Z,101601.00
2022-11-30T11:49:23.667Z,101578.81
2022-11-30T11:51:35.180Z,101580.78
2022-11-30T11:53:51.667Z,101593.53
2022-11-30T11:56:12.794Z,101591.63
2022-11-30T11:58:28.602Z,101592.34
2022-11-30T12:00:31.909Z,101599.97
2022-11-30T12:02:49.173Z,101596.09
2022-11-30T12:05:01.205Z,101595.53
2022-11-30T12:07:28.451Z,101588.72
2022-11-30T12:09:40.266Z,101593.19
2022-11-30T12:11:45.680Z,101605.00
2022-11-30T12:13:48.676Z,101604.53
2022-11-30T12:16:05.603Z,101600.13
2022-11-30T12:18:37.362Z,101606.94
2022-11-30T12:20:58.555Z,101590.63
2022-11-30T12:23:31.067Z,101610.41
2022-11-30T12:26:05.383Z,101600.06
2022-11-30T12:28:34.451Z,101603.94
2022-11-30T12:30:56.537Z,101605.88
2022-11-30T12:33:14.581Z,101606.09
2022-11-30T12:35:39.794Z,101601.13
2022-11-30T12:38:11.190Z,101600.78
2022-11-30T12:40:28.412Z,101608.47
2022-11-30T12:43:25.613Z,101601.13
2022-11-30T12:45:36.202Z,101611.72
2022-11-30T12:47:49.356Z,101592.94
2022-11-30T12:50:30.939Z,101598.47
2022-11-30T12:52:53.449Z,101609.84
2022-11-30T12:55:20.486Z,101597.81
2022-11-30T12:57:35.190Z,101615.63
2022-11-30T13:00:01.411Z,101616.72
2022-11-30T13:02:28.322Z,101613.22
2022-11-30T13:04:51.888Z,101614.28
2022-11-30T13:07:17.922Z,101598.00
2022-11-30T13:09:45.160Z,101607.84
2022-11-30T13:11:55.306Z,101604.53
2022-11-30T13:13:59.831Z,101610.72
2022-11-30T13:16:07.071Z,101604.63
2022-11-30T13:18:15.939Z,101600.81
2022-11-30T13:20:32.968Z,101604.84
2022-11-30T13:22:56.891Z,101614.47
2022-11-30T13:28:33.599Z,101602.53
2022-11-30T13:31:06.454Z,101604.53
2022-11-30T13:33:48.183Z,101607.59
2022-11-30T13:35:54.800Z,101597.75
2022-11-30T13:38:35.799Z,101588.81
2022-11-30T13:40:36.498Z,101586.72
2022-11-30T13:42:48.852Z,101590.53
2022-11-30T13:44:54.010Z,101595.41
2022-11-30T13:46:56.170Z,101611.47
2022-11-30T13:49:21.252Z,101569.84
2022-11-30T13:51:37.773Z,101603.22
2022-11-30T13:53:40.596Z,101621.97
2022-11-30T13:55:42.742Z,101613.88
2022-11-30T13:57:46.100Z,101615.44
2022-11-30T13:59:51.577Z,101609.41
2022-11-30T14:02:36.647Z,101595.94
2022-11-30T14:04:46.180Z,101596.59
2022-11-30T14:06:55.433Z,101607.94
2022-11-30T14:08:57.851Z,101605.81
2022-11-30T14:11:37.612Z,101609.84
2022-11-30T14:13:39.765Z,101602.56
2022-11-30T14:15:44.497Z,101615.03
2022-11-30T14:17:46.644Z,101615.34
2022-11-30T14:19:52.727Z,101610.03
2022-11-30T14:21:55.914Z,101608.59
2022-11-30T14:24:07.785Z,101619.34
2022-11-30T14:26:17.514Z,101622.97
2022-11-30T14:28:23.550Z,101613.03
2022-11-30T14:30:26.204Z,101614.47
2022-11-30T14:32:37.981Z,101616.13
2022-11-30T14:34:50.561Z,101594.84
2022-11-30T14:36:58.155Z,101613.22
2022-11-30T14:39:00.117Z,101596.50
2022-11-30T14:41:03.522Z,101612.91
2022-11-30T14:43:08.816Z,101619.97
2022-11-30T14:45:27.718Z,101621.97
2022-11-30T14:47:35.458Z,101615.59
2022-11-30T14:49:45.787Z,101622.16
2022-11-30T14:52:03.742Z,101614.97
2022-11-30T14:54:44.674Z,101616.47
2022-11-30T14:56:49.745Z,101626.44
2022-11-30T14:59:16.513Z,101623.38
2022-11-30T15:01:26.015Z,101608.13
2022-11-30T15:03:35.878Z,101603.09
2022-11-30T15:05:43.458Z,101629.97
2022-11-30T15:07:45.731Z,101625.09
2022-11-30T15:09:50.959Z,101621.41
2022-11-30T15:11:53.897Z,101617.19
2022-11-30T15:14:06.576Z,101604.28
2022-11-30T15:16:22.122Z,101612.63
2022-11-30T15:18:25.883Z,101624.91
2022-11-30T15:20:36.790Z,101619.66
2022-11-30T15:22:38.627Z,101620.19
2022-11-30T15:24:40.899Z,101617.44
2022-11-30T15:26:56.772Z,101620.59
2022-11-30T15:29:06.506Z,101629.03
2022-11-30T15:31:13.448Z,101620.84
2022-11-30T15:33:24.442Z,101626.81
2022-11-30T15:35:38.771Z,101622.81
2022-11-30T15:37:46.619Z,101619.50
2022-11-30T15:39:55.424Z,101638.31
2022-11-30T15:42:03.600Z,101635.91
2022-11-30T15:44:05.523Z,101620.81
2022-11-30T15:46:27.493Z,101628.81
2022-11-30T15:48:38.617Z,101628.22
2022-11-30T15:50:42.272Z,101641.13
2022-11-30T15:52:44.896Z,101631.84
2022-11-30T15:54:55.320Z,101628.88
2022-11-30T15:56:58.010Z,101574.25
2022-11-30T15:59:23.878Z,101634.91
2022-11-30T16:01:26.549Z,101611.75
2022-11-30T16:03:28.414Z,101614.47
2022-11-30T16:05:30.734Z,101638.28
2022-11-30T16:07:35.689Z,101628.09
2022-11-30T16:09:38.371Z,101618.59
2022-11-30T16:11:40.433Z,101638.56
2022-11-30T16:13:42.602Z,101617.50
2022-11-30T16:15:46.894Z,101632.03
2022-11-30T16:17:49.998Z,101611.25
2022-11-30T16:19:51.841Z,101617.19
2022-11-30T16:21:53.694Z,101630.94
2022-11-30T16:23:55.944Z,101622.81
2022-11-30T16:25:58.262Z,101632.28
2022-11-30T16:28:00.112Z,101640.78
2022-11-30T16:30:02.271Z,101622.50
2022-11-30T16:32:04.261Z,101646.25
2022-11-30T16:34:08.787Z,101630.34
2022-11-30T16:36:19.237Z,101639.94
2022-11-30T16:38:21.792Z,101630.28
2022-11-30T16:40:23.551Z,101612.41
2022-11-30T16:42:25.791Z,101632.91
2022-11-30T16:44:27.814Z,101640.53
2022-11-30T16:46:31.369Z,101638.47
2022-11-30T16:48:35.773Z,101634.56
2022-11-30T16:50:37.799Z,101643.00
2022-11-30T16:52:42.531Z,101642.53
2022-11-30T16:54:44.842Z,101623.63
2022-11-30T16:56:48.428Z,101651.31
2022-11-30T16:58:51.247Z,101652.94
2022-11-30T17:00:53.247Z,101651.69
2022-11-30T17:02:55.372Z,101653.28
2022-11-30T17:04:58.451Z,101652.09
2022-11-30T17:07:02.814Z,101659.97
2022-11-30T17:09:05.459Z,101645.16
2022-11-30T17:11:16.294Z,101639.19
2022-11-30T17:13:18.204Z,101650.59
2022-11-30T17:15:23.130Z,101654.44
2022-11-30T17:17:24.934Z,101655.09
2022-11-30T17:19:26.942Z,101665.81
2022-11-30T17:21:44.508Z,101667.91
2022-11-30T17:23:46.543Z,101660.41
2022-11-30T17:25:49.421Z,101671.59
2022-11-30T17:27:51.507Z,101655.09
2022-11-30T17:29:53.701Z,101667.78
2022-11-30T17:31:55.542Z,101669.44
2022-11-30T17:33:57.343Z,101664.38
2022-11-30T17:35:59.836Z,101637.13
2022-11-30T17:38:01.717Z,101671.81
2022-11-30T17:40:05.080Z,101669.50
2022-11-30T17:42:08.960Z,101668.50
2022-11-30T17:44:10.898Z,101673.81
2022-11-30T17:46:15.850Z,101671.81
2022-11-30T17:48:18.303Z,101679.56
2022-11-30T17:50:20.197Z,101655.94
2022-11-30T17:52:21.999Z,101671.94
2022-11-30T17:54:24.175Z,101674.44
2022-11-30T17:56:28.676Z,101676.53
2022-11-30T17:58:34.661Z,101667.84
2022-11-30T18:00:38.319Z,101666.03
2022-11-30T18:02:40.133Z,101681.25
2022-11-30T18:04:42.450Z,101663.72
2022-11-30T18:06:44.447Z,101666.44
2022-11-30T18:08:46.238Z,101663.56
2022-11-30T18:10:48.363Z,101674.66
2022-11-30T18:12:50.568Z,101685.81
2022-11-30T18:14:52.356Z,101682.69
2022-11-30T18:16:54.635Z,101671.25
2022-11-30T18:18:58.557Z,101679.25
2022-11-30T18:21:12.015Z,101674.66
2022-11-30T18:23:15.175Z,101689.94
2022-11-30T18:25:17.526Z,101682.56
2022-11-30T18:27:20.166Z,101687.72
2022-11-30T18:29:25.376Z,101696.25
2022-11-30T18:31:29.592Z,101689.88
2022-11-30T18:33:32.842Z,101691.50
2022-11-30T18:35:34.694Z,101668.28
2022-11-30T18:37:36.578Z,101667.44
2022-11-30T18:39:38.678Z,101681.16
2022-11-30T18:41:40.510Z,101679.56
2022-11-30T18:43:42.302Z,101679.28
2022-11-30T18:45:44.536Z,101675.97
2022-11-30T18:47:46.357Z,101677.13
2022-11-30T18:49:48.503Z,101676.22
2022-11-30T18:51:50.311Z,101689.88
2022-11-30T18:54:04.594Z,101665.03
2022-11-30T18:56:13.193Z,101691.69
2022-11-30T18:58:15.319Z,101651.44
2022-11-30T19:00:18.073Z,101682.00
2022-11-30T19:02:21.696Z,101684.81
2022-11-30T19:04:28.219Z,101689.78
2022-11-30T19:06:34.591Z,101687.53
2022-11-30T19:08:38.642Z,101676.97
2022-11-30T19:10:40.695Z,101679.75
2022-11-30T19:12:42.539Z,101669.66
2022-11-30T19:14:45.663Z,101681.25
2022-11-30T19:16:48.329Z,101686.63
2022-11-30T19:18:50.970Z,101671.50
2022-11-30T19:20:53.384Z,101685.97
2022-11-30T19:22:55.227Z,101678.28
2022-11-30T19:24:57.055Z,101685.03
2022-11-30T19:26:59.619Z,101681.16
2022-11-30T19:29:02.046Z,101680.59
2022-11-30T19:31:17.883Z,101688.78
2022-11-30T19:33:20.370Z,101693.28
2022-11-30T19:35:23.194Z,101692.81
2022-11-30T19:37:24.983Z,101704.91
2022-11-30T19:39:27.607Z,101690.97
2022-11-30T19:41:29.822Z,101705.13
2022-11-30T19:43:31.917Z,101690.22
2022-11-30T19:45:34.759Z,101705.28
2022-11-30T19:47:37.529Z,101690.44
2022-11-30T19:49:39.666Z,101686.09
2022-11-30T19:51:41.680Z,101691.13
2022-11-30T19:53:44.310Z,101696.34
2022-11-30T19:55:46.377Z,101709.13
2022-11-30T19:57:48.359Z,101704.16
2022-11-30T19:59:50.247Z,101698.31
2022-11-30T20:01:52.710Z,101707.31
2022-11-30T20:03:57.110Z,101712.56
2022-11-30T20:05:58.920Z,101710.63
2022-11-30T20:08:01.154Z,101695.38
2022-11-30T20:10:03.184Z,101713.03
2022-11-30T20:12:05.762Z,101714.97
2022-11-30T20:14:07.583Z,101694.09
2022-11-30T20:16:14.713Z,101716.16
2022-11-30T20:18:16.920Z,101701.06
2022-11-30T20:20:18.758Z,101710.50
2022-11-30T20:22:21.286Z,101721.59
2022-11-30T20:24:23.105Z,101714.38
2022-11-30T20:26:29.853Z,101717.66
2022-11-30T20:28:32.214Z,101720.28
2022-11-30T20:30:34.067Z,101718.13
2022-11-30T20:32:40.475Z,101720.97
2022-11-30T20:34:43.947Z,101713.44
2022-11-30T20:36:45.979Z,101698.47
2022-11-30T20:38:48.502Z,101710.38
2022-11-30T20:40:50.705Z,101707.63
2022-11-30T20:42:52.748Z,101724.91
2022-11-30T20:44:55.014Z,101709.06
2022-11-30T20:46:56.827Z,101717.53
2022-11-30T20:49:00.191Z,101724.66
2022-11-30T20:53:35.036Z,101712.91
2022-11-30T20:55:37.252Z,101722.16
2022-11-30T20:57:39.292Z,101715.97
2022-11-30T20:59:42.707Z,101731.28
2022-11-30T21:01:45.701Z,101728.38
2022-11-30T21:03:48.492Z,101725.81
2022-11-30T21:05:50.716Z,101723.59
2022-11-30T21:07:52.578Z,101717.59
2022-11-30T21:09:54.441Z,101728.63
2022-11-30T21:12:00.027Z,101716.88
2022-11-30T21:14:01.813Z,101731.28
2022-11-30T21:16:07.208Z,101725.13
2022-11-30T21:18:09.730Z,101728.88
2022-11-30T21:20:12.776Z,101733.25
2022-11-30T21:22:15.066Z,101711.72
2022-11-30T21:24:17.599Z,101710.72
2022-11-30T21:26:21.870Z,101728.25
2022-11-30T21:28:25.161Z,101712.63
2022-11-30T21:30:28.165Z,101726.19
2022-11-30T21:32:30.357Z,101719.47
2022-11-30T21:34:32.210Z,101726.63
2022-11-30T21:36:34.036Z,101729.13
2022-11-30T21:38:36.439Z,101725.75
2022-11-30T21:40:38.244Z,101720.16
2022-11-30T21:42:40.066Z,101727.84
2022-11-30T21:44:42.390Z,101725.75
2022-11-30T21:46:46.380Z,101725.09
2022-11-30T21:48:50.490Z,101717.41
2022-11-30T21:51:04.429Z,101724.09
2022-11-30T21:53:06.295Z,101717.09
2022-11-30T21:55:10.265Z,101711.13
2022-11-30T21:57:13.992Z,101713.38
2022-11-30T21:59:16.557Z,101710.91
2022-11-30T22:01:27.612Z,101729.59
2022-11-30T22:03:30.466Z,101725.53
2022-11-30T22:05:32.278Z,101728.25
2022-11-30T22:07:34.233Z,101722.72
2022-11-30T22:09:39.431Z,101710.81
2022-11-30T22:11:42.910Z,101712.38
2022-11-30T22:13:48.983Z,101727.97
2022-11-30T22:15:57.809Z,101724.50
2022-11-30T22:17:59.604Z,101729.78
2022-11-30T22:20:01.438Z,101727.97
2022-11-30T22:22:03.646Z,101728.97
2022-11-30T22:24:09.178Z,101726.56
2022-11-30T22:26:17.278Z,101725.63
2022-11-30T22:28:19.434Z,101727.72
2022-11-30T22:30:21.252Z,101715.63
2022-11-30T22:32:23.003Z,101725.97
2022-11-30T22:34:25.181Z,101727.97
2022-11-30T22:36:29.901Z,101729.53
2022-11-30T22:38:31.987Z,101722.72
2022-11-30T22:40:34.105Z,101697.75
2022-11-30T22:42:36.046Z,101713.38
2022-11-30T22:44:38.186Z,101723.25
2022-11-30T22:46:40.804Z,101725.75
2022-11-30T22:48:43.038Z,101725.81
2022-11-30T22:50:45.145Z,101722.59
2022-11-30T22:53:02.479Z,101720.44
2022-11-30T22:55:06.047Z,101720.91
2022-11-30T22:57:07.878Z,101728.78
2022-11-30T22:59:13.547Z,101724.59
2022-11-30T23:01:19.352Z,101722.19
2022-11-30T23:03:24.784Z,101713.22
2022-11-30T23:05:27.025Z,101716.06
2022-11-30T23:07:31.977Z,101714.03
2022-11-30T23:09:34.530Z,101705.63
2022-11-30T23:11:36.572Z,101715.13
2022-11-30T23:13:39.435Z,101712.22
2022-11-30T23:15:41.866Z,101707.41
2022-11-30T23:17:43.882Z,101704.38
2022-11-30T23:19:45.907Z,101699.81
2022-11-30T23:21:50.134Z,101706.19
2022-11-30T23:23:52.461Z,101708.69
2022-11-30T23:25:54.191Z,101694.84
2022-11-30T23:27:56.320Z,101710.00
2022-11-30T23:29:58.146Z,101705.94
2022-11-30T23:31:59.959Z,101703.44
2022-11-30T23:34:13.223Z,101702.13
2022-11-30T23:36:18.699Z,101699.16
2022-11-30T23:38:20.517Z,101700.22
2022-11-30T23:40:22.711Z,101689.22
2022-11-30T23:42:24.468Z,101694.03
2022-11-30T23:44:26.583Z,101702.88
2022-11-30T23:46:28.511Z,101700.56
2022-11-30T23:48:30.543Z,101707.19
2022-11-30T23:50:32.630Z,101706.78
2022-11-30T23:52:34.613Z,101700.50
2022-11-30T23:54:36.465Z,101690.88
2022-11-30T23:56:38.654Z,101687.06
2022-11-30T23:58:40.987Z,101698.75
